sensor_id;sensor_type;location;lat;lon;timestamp;P1;durP1;ratioP1;P2;durP2;ratioP2
434;SDS011;204;48.942;9.256;2022-12-29T00:01:28;3.90;;;2.13;;
434;SDS011;204;48.942;9.256;2022-12-29T00:03:54;2.45;;;2.35;;
434;SDS011;204;48.942;9.256;2022-12-29T00:06:20;2.47;;;2.33;;
434;SDS011;204;48.942;9.256;2022-12-29T00:08:45;2.63;;;2.43;;
434;SDS011;204;48.942;9.256;2022-12-29T00:14:02;2.72;;;1.95;;
434;SDS011;204;48.942;9.256;2022-12-29T00:16:47;2.97;;;2.60;;
434;SDS011;204;48.942;9.256;2022-12-29T00:19:12;2.83;;;2.43;;
434;SDS011;204;48.942;9.256;2022-12-29T00:22:01;4.55;;;2.22;;
434;SDS011;204;48.942;9.256;2022-12-29T00:24:45;2.40;;;2.20;;
434;SDS011;204;48.942;9.256;2022-12-29T00:27:27;3.17;;;2.10;;
434;SDS011;204;48.942;9.256;2022-12-29T00:30:12;2.55;;;2.00;;
434;SDS011;204;48.942;9.256;2022-12-29T00:33:07;3.55;;;2.63;;
434;SDS011;204;48.942;9.256;2022-12-29T00:36:00;1.90;;;1.80;;
434;SDS011;204;48.942;9.256;2022-12-29T00:38:32;2.88;;;1.85;;
434;SDS011;204;48.942;9.256;2022-12-29T00:41:20;2.15;;;1.90;;
434;SDS011;204;48.942;9.256;2022-12-29T00:44:04;2.22;;;2.03;;
434;SDS011;204;48.942;9.256;2022-12-29T00:46:30;2.97;;;2.30;;
434;SDS011;204;48.942;9.256;2022-12-29T00:49:00;3.83;;;1.95;;
434;SDS011;204;48.942;9.256;2022-12-29T00:51:45;4.75;;;1.92;;
434;SDS011;204;48.942;9.256;2022-12-29T00:54:11;2.43;;;1.80;;
434;SDS011;204;48.942;9.256;2022-12-29T00:56:37;2.50;;;2.30;;
434;SDS011;204;48.942;9.256;2022-12-29T00:59:03;2.83;;;2.07;;
434;SDS011;204;48.942;9.256;2022-12-29T01:01:32;5.53;;;2.35;;
434;SDS011;204;48.942;9.256;2022-12-29T01:03:57;3.83;;;2.22;;
434;SDS011;204;48.942;9.256;2022-12-29T01:06:23;3.00;;;1.90;;
434;SDS011;204;48.942;9.256;2022-12-29T01:08:49;2.93;;;2.00;;
434;SDS011;204;48.942;9.256;2022-12-29T01:11:35;5.00;;;2.80;;
434;SDS011;204;48.942;9.256;2022-12-29T01:14:01;2.07;;;1.83;;
434;SDS011;204;48.942;9.256;2022-12-29T01:16:26;2.13;;;1.97;;
434;SDS011;204;48.942;9.256;2022-12-29T01:18:52;1.80;;;1.67;;
434;SDS011;204;48.942;9.256;2022-12-29T01:21:17;3.13;;;1.77;;
434;SDS011;204;48.942;9.256;2022-12-29T01:23:43;3.67;;;2.13;;
434;SDS011;204;48.942;9.256;2022-12-29T01:26:12;1.90;;;1.43;;
434;SDS011;204;48.942;9.256;2022-12-29T01:28:39;1.75;;;1.70;;
434;SDS011;204;48.942;9.256;2022-12-29T01:31:06;2.75;;;1.83;;
434;SDS011;204;48.942;9.256;2022-12-29T01:33:32;2.75;;;1.75;;
434;SDS011;204;48.942;9.256;2022-12-29T01:36:02;1.97;;;1.87;;
434;SDS011;204;48.942;9.256;2022-12-29T01:38:29;2.22;;;2.10;;
434;SDS011;204;48.942;9.256;2022-12-29T01:40:55;2.00;;;1.87;;
434;SDS011;204;48.942;9.256;2022-12-29T01:43:20;4.87;;;1.70;;
434;SDS011;204;48.942;9.256;2022-12-29T01:45:50;7.90;;;2.57;;
434;SDS011;204;48.942;9.256;2022-12-29T01:48:18;3.47;;;1.83;;
434;SDS011;204;48.942;9.256;2022-12-29T01:50:53;4.35;;;1.90;;
434;SDS011;204;48.942;9.256;2022-12-29T01:53:24;1.73;;;1.63;;
434;SDS011;204;48.942;9.256;2022-12-29T01:55:55;2.10;;;1.95;;
434;SDS011;204;48.942;9.256;2022-12-29T01:58:26;2.10;;;1.83;;
434;SDS011;204;48.942;9.256;2022-12-29T02:00:55;2.33;;;1.65;;
434;SDS011;204;48.942;9.256;2022-12-29T02:03:21;1.47;;;1.40;;
434;SDS011;204;48.942;9.256;2022-12-29T02:08:29;2.28;;;2.08;;
434;SDS011;204;48.942;9.256;2022-12-29T02:10:55;3.90;;;2.88;;
434;SDS011;204;48.942;9.256;2022-12-29T02:13:25;4.05;;;2.70;;
434;SDS011;204;48.942;9.256;2022-12-29T02:15:54;2.90;;;1.75;;
434;SDS011;204;48.942;9.256;2022-12-29T02:18:32;2.67;;;1.85;;
434;SDS011;204;48.942;9.256;2022-12-29T02:35:10;1.60;;;1.50;;
434;SDS011;204;48.942;9.256;2022-12-29T02:40:41;2.55;;;1.77;;
434;SDS011;204;48.942;9.256;2022-12-29T02:45:58;1.70;;;1.60;;
434;SDS011;204;48.942;9.256;2022-12-29T02:48:41;2.72;;;1.38;;
434;SDS011;204;48.942;9.256;2022-12-29T02:51:54;2.17;;;1.70;;
434;SDS011;204;48.942;9.256;2022-12-29T02:54:20;4.55;;;1.70;;
434;SDS011;204;48.942;9.256;2022-12-29T02:57:11;2.70;;;1.30;;
434;SDS011;204;48.942;9.256;2022-12-29T02:59:40;1.83;;;1.50;;
434;SDS011;204;48.942;9.256;2022-12-29T03:02:13;3.15;;;2.55;;
434;SDS011;204;48.942;9.256;2022-12-29T03:16:32;3.53;;;1.42;;
434;SDS011;204;48.942;9.256;2022-12-29T03:19:28;2.05;;;1.98;;
434;SDS011;204;48.942;9.256;2022-12-29T03:24:52;3.15;;;1.77;;
434;SDS011;204;48.942;9.256;2022-12-29T03:27:25;2.10;;;1.70;;
434;SDS011;204;48.942;9.256;2022-12-29T03:29:57;2.15;;;1.40;;
434;SDS011;204;48.942;9.256;2022-12-29T03:32:36;1.15;;;1.15;;
434;SDS011;204;48.942;9.256;2022-12-29T03:35:15;1.55;;;1.48;;
434;SDS011;204;48.942;9.256;2022-12-29T03:37:44;1.42;;;1.30;;
434;SDS011;204;48.942;9.256;2022-12-29T03:40:17;2.40;;;1.58;;
434;SDS011;204;48.942;9.256;2022-12-29T03:42:46;3.47;;;1.20;;
434;SDS011;204;48.942;9.256;2022-12-29T03:45:13;3.83;;;1.40;;
434;SDS011;204;48.942;9.256;2022-12-29T03:47:38;2.33;;;1.70;;
434;SDS011;204;48.942;9.256;2022-12-29T03:50:05;5.23;;;1.90;;
434;SDS011;204;48.942;9.256;2022-12-29T03:52:31;1.83;;;1.13;;
434;SDS011;204;48.942;9.256;2022-12-29T03:54:56;3.60;;;1.40;;
434;SDS011;204;48.942;9.256;2022-12-29T03:57:22;1.53;;;1.00;;
434;SDS011;204;48.942;9.256;2022-12-29T03:59:48;4.70;;;1.80;;
434;SDS011;204;48.942;9.256;2022-12-29T04:02:14;1.80;;;1.70;;
434;SDS011;204;48.942;9.256;2022-12-29T04:04:40;1.48;;;1.38;;
434;SDS011;204;48.942;9.256;2022-12-29T04:07:05;4.00;;;1.63;;
434;SDS011;204;48.942;9.256;2022-12-29T04:09:31;3.70;;;1.67;;
434;SDS011;204;48.942;9.256;2022-12-29T04:11:57;3.27;;;1.70;;
434;SDS011;204;48.942;9.256;2022-12-29T04:14:22;2.57;;;1.50;;
434;SDS011;204;48.942;9.256;2022-12-29T04:16:48;1.80;;;1.40;;
434;SDS011;204;48.942;9.256;2022-12-29T04:19:13;5.33;;;1.67;;
434;SDS011;204;48.942;9.256;2022-12-29T04:21:39;1.37;;;0.93;;
434;SDS011;204;48.942;9.256;2022-12-29T04:24:05;2.00;;;1.50;;
434;SDS011;204;48.942;9.256;2022-12-29T04:26:31;3.83;;;1.55;;
434;SDS011;204;48.942;9.256;2022-12-29T04:28:57;1.98;;;1.30;;
434;SDS011;204;48.942;9.256;2022-12-29T04:31:23;4.53;;;1.70;;
434;SDS011;204;48.942;9.256;2022-12-29T04:33:48;3.03;;;1.70;;
434;SDS011;204;48.942;9.256;2022-12-29T04:36:14;2.90;;;2.07;;
434;SDS011;204;48.942;9.256;2022-12-29T04:38:40;2.50;;;2.07;;
434;SDS011;204;48.942;9.256;2022-12-29T04:41:05;4.00;;;3.30;;
434;SDS011;204;48.942;9.256;2022-12-29T04:43:31;2.40;;;1.80;;
434;SDS011;204;48.942;9.256;2022-12-29T04:45:56;4.73;;;2.23;;
434;SDS011;204;48.942;9.256;2022-12-29T04:48:22;1.77;;;1.37;;
434;SDS011;204;48.942;9.256;2022-12-29T04:50:48;2.33;;;1.47;;
434;SDS011;204;48.942;9.256;2022-12-29T04:53:14;2.47;;;1.20;;
434;SDS011;204;48.942;9.256;2022-12-29T04:55:41;3.10;;;1.48;;
434;SDS011;204;48.942;9.256;2022-12-29T04:58:06;1.90;;;1.33;;
434;SDS011;204;48.942;9.256;2022-12-29T05:00:32;1.37;;;1.33;;
434;SDS011;204;48.942;9.256;2022-12-29T05:02:58;2.28;;;1.33;;
434;SDS011;204;48.942;9.256;2022-12-29T05:05:24;4.10;;;1.43;;
434;SDS011;204;48.942;9.256;2022-12-29T05:07:49;1.83;;;1.03;;
434;SDS011;204;48.942;9.256;2022-12-29T05:10:15;2.13;;;1.60;;
434;SDS011;204;48.942;9.256;2022-12-29T05:12:41;2.38;;;1.30;;
434;SDS011;204;48.942;9.256;2022-12-29T05:15:07;1.00;;;0.93;;
434;SDS011;204;48.942;9.256;2022-12-29T05:17:34;2.10;;;1.30;;
434;SDS011;204;48.942;9.256;2022-12-29T05:19:59;4.67;;;2.00;;
434;SDS011;204;48.942;9.256;2022-12-29T05:22:25;1.50;;;1.10;;
434;SDS011;204;48.942;9.256;2022-12-29T05:24:51;1.37;;;1.23;;
434;SDS011;204;48.942;9.256;2022-12-29T05:27:16;2.83;;;1.50;;
434;SDS011;204;48.942;9.256;2022-12-29T05:29:42;1.47;;;1.23;;
434;SDS011;204;48.942;9.256;2022-12-29T05:32:07;2.30;;;1.20;;
434;SDS011;204;48.942;9.256;2022-12-29T05:34:33;1.80;;;0.83;;
434;SDS011;204;48.942;9.256;2022-12-29T05:36:58;1.60;;;1.40;;
434;SDS011;204;48.942;9.256;2022-12-29T05:39:24;3.80;;;1.57;;
434;SDS011;204;48.942;9.256;2022-12-29T05:41:49;3.00;;;1.80;;
434;SDS011;204;48.942;9.256;2022-12-29T05:44:15;1.87;;;1.37;;
434;SDS011;204;48.942;9.256;2022-12-29T05:46:41;1.70;;;1.50;;
434;SDS011;204;48.942;9.256;2022-12-29T05:49:06;2.50;;;1.87;;
434;SDS011;204;48.942;9.256;2022-12-29T05:51:32;1.53;;;1.37;;
434;SDS011;204;48.942;9.256;2022-12-29T05:53:58;2.70;;;1.67;;
434;SDS011;204;48.942;9.256;2022-12-29T05:56:24;1.20;;;1.20;;
434;SDS011;204;48.942;9.256;2022-12-29T05:58:49;1.53;;;1.43;;
434;SDS011;204;48.942;9.256;2022-12-29T06:01:15;3.00;;;1.47;;
434;SDS011;204;48.942;9.256;2022-12-29T06:03:41;1.90;;;1.57;;
434;SDS011;204;48.942;9.256;2022-12-29T06:06:06;2.57;;;1.90;;
434;SDS011;204;48.942;9.256;2022-12-29T06:08:32;1.93;;;1.83;;
434;SDS011;204;48.942;9.256;2022-12-29T06:10:57;4.30;;;2.43;;
434;SDS011;204;48.942;9.256;2022-12-29T06:13:23;2.50;;;2.10;;
434;SDS011;204;48.942;9.256;2022-12-29T06:15:49;2.23;;;1.90;;
434;SDS011;204;48.942;9.256;2022-12-29T06:18:15;2.63;;;2.42;;
434;SDS011;204;48.942;9.256;2022-12-29T06:20:41;2.60;;;1.80;;
434;SDS011;204;48.942;9.256;2022-12-29T06:23:06;2.00;;;1.37;;
434;SDS011;204;48.942;9.256;2022-12-29T06:25:32;1.30;;;1.23;;
434;SDS011;204;48.942;9.256;2022-12-29T06:27:59;1.75;;;1.65;;
434;SDS011;204;48.942;9.256;2022-12-29T06:30:24;1.95;;;1.73;;
434;SDS011;204;48.942;9.256;2022-12-29T06:32:50;1.73;;;1.50;;
434;SDS011;204;48.942;9.256;2022-12-29T06:35:16;1.73;;;1.70;;
434;SDS011;204;48.942;9.256;2022-12-29T06:37:42;2.53;;;1.50;;
434;SDS011;204;48.942;9.256;2022-12-29T06:40:08;2.50;;;1.65;;
434;SDS011;204;48.942;9.256;2022-12-29T06:42:34;1.85;;;1.75;;
434;SDS011;204;48.942;9.256;2022-12-29T06:45:00;1.80;;;1.70;;
434;SDS011;204;48.942;9.256;2022-12-29T06:47:25;1.93;;;1.83;;
434;SDS011;204;48.942;9.256;2022-12-29T06:49:51;1.77;;;1.30;;
434;SDS011;204;48.942;9.256;2022-12-29T06:52:17;2.77;;;1.40;;
434;SDS011;204;48.942;9.256;2022-12-29T06:54:42;3.90;;;1.70;;
434;SDS011;204;48.942;9.256;2022-12-29T06:57:08;3.23;;;1.80;;
434;SDS011;204;48.942;9.256;2022-12-29T06:59:34;2.40;;;1.40;;
434;SDS011;204;48.942;9.256;2022-12-29T07:01:59;3.50;;;1.80;;
434;SDS011;204;48.942;9.256;2022-12-29T07:04:26;4.72;;;3.17;;
434;SDS011;204;48.942;9.256;2022-12-29T07:06:52;2.70;;;1.93;;
434;SDS011;204;48.942;9.256;2022-12-29T07:09:18;2.97;;;1.90;;
434;SDS011;204;48.942;9.256;2022-12-29T07:11:43;2.40;;;1.67;;
434;SDS011;204;48.942;9.256;2022-12-29T07:14:10;3.00;;;1.33;;
434;SDS011;204;48.942;9.256;2022-12-29T07:16:36;3.35;;;2.55;;
434;SDS011;204;48.942;9.256;2022-12-29T07:19:02;3.10;;;2.90;;
434;SDS011;204;48.942;9.256;2022-12-29T07:21:27;2.07;;;1.93;;
434;SDS011;204;48.942;9.256;2022-12-29T07:23:53;2.73;;;1.93;;
434;SDS011;204;48.942;9.256;2022-12-29T07:26:19;3.95;;;1.95;;
434;SDS011;204;48.942;9.256;2022-12-29T07:28:45;3.90;;;1.90;;
434;SDS011;204;48.942;9.256;2022-12-29T07:31:14;1.77;;;1.40;;
434;SDS011;204;48.942;9.256;2022-12-29T07:33:41;1.55;;;1.40;;
434;SDS011;204;48.942;9.256;2022-12-29T07:36:08;2.90;;;2.55;;
434;SDS011;204;48.942;9.256;2022-12-29T07:38:34;3.72;;;2.80;;
434;SDS011;204;48.942;9.256;2022-12-29T07:40:59;8.63;;;4.07;;
434;SDS011;204;48.942;9.256;2022-12-29T07:43:25;6.40;;;3.00;;
434;SDS011;204;48.942;9.256;2022-12-29T07:45:51;3.90;;;2.60;;
434;SDS011;204;48.942;9.256;2022-12-29T07:48:16;4.27;;;3.40;;
434;SDS011;204;48.942;9.256;2022-12-29T07:50:42;4.40;;;3.83;;
434;SDS011;204;48.942;9.256;2022-12-29T07:53:07;7.13;;;4.80;;
434;SDS011;204;48.942;9.256;2022-12-29T07:55:33;5.03;;;3.60;;
434;SDS011;204;48.942;9.256;2022-12-29T07:57:58;8.30;;;3.87;;
434;SDS011;204;48.942;9.256;2022-12-29T08:00:24;3.67;;;2.20;;
434;SDS011;204;48.942;9.256;2022-12-29T08:02:50;2.30;;;1.97;;
434;SDS011;204;48.942;9.256;2022-12-29T08:05:15;4.00;;;2.33;;
434;SDS011;204;48.942;9.256;2022-12-29T08:07:44;1.80;;;1.70;;
434;SDS011;204;48.942;9.256;2022-12-29T08:10:11;4.25;;;2.40;;
434;SDS011;204;48.942;9.256;2022-12-29T08:12:38;3.95;;;2.30;;
434;SDS011;204;48.942;9.256;2022-12-29T08:15:04;6.03;;;2.70;;
434;SDS011;204;48.942;9.256;2022-12-29T08:17:31;6.07;;;3.40;;
434;SDS011;204;48.942;9.256;2022-12-29T08:19:56;6.80;;;3.20;;
434;SDS011;204;48.942;9.256;2022-12-29T08:22:22;3.53;;;2.77;;
434;SDS011;204;48.942;9.256;2022-12-29T08:24:48;2.33;;;2.17;;
434;SDS011;204;48.942;9.256;2022-12-29T08:27:13;2.50;;;2.33;;
434;SDS011;204;48.942;9.256;2022-12-29T08:29:39;3.03;;;2.40;;
434;SDS011;204;48.942;9.256;2022-12-29T08:32:05;2.90;;;1.97;;
434;SDS011;204;48.942;9.256;2022-12-29T08:34:31;2.22;;;1.50;;
434;SDS011;204;48.942;9.256;2022-12-29T08:36:57;3.33;;;1.77;;
434;SDS011;204;48.942;9.256;2022-12-29T08:39:22;3.60;;;2.40;;
434;SDS011;204;48.942;9.256;2022-12-29T08:41:48;3.23;;;1.70;;
434;SDS011;204;48.942;9.256;2022-12-29T08:44:14;2.80;;;1.90;;
434;SDS011;204;48.942;9.256;2022-12-29T08:46:39;2.17;;;1.40;;
434;SDS011;204;48.942;9.256;2022-12-29T08:49:05;6.13;;;1.70;;
434;SDS011;204;48.942;9.256;2022-12-29T08:51:30;2.33;;;1.90;;
434;SDS011;204;48.942;9.256;2022-12-29T08:53:56;1.47;;;1.30;;
434;SDS011;204;48.942;9.256;2022-12-29T08:56:22;1.97;;;1.80;;
434;SDS011;204;48.942;9.256;2022-12-29T08:58:48;3.03;;;2.15;;
434;SDS011;204;48.942;9.256;2022-12-29T09:01:14;3.25;;;2.08;;
434;SDS011;204;48.942;9.256;2022-12-29T09:03:40;2.63;;;1.73;;
434;SDS011;204;48.942;9.256;2022-12-29T09:06:05;1.87;;;1.30;;
434;SDS011;204;48.942;9.256;2022-12-29T09:08:31;2.10;;;1.40;;
434;SDS011;204;48.942;9.256;2022-12-29T09:11:05;2.67;;;1.80;;
434;SDS011;204;48.942;9.256;2022-12-29T09:13:35;9.98;;;5.60;;
434;SDS011;204;48.942;9.256;2022-12-29T09:16:00;4.57;;;2.30;;
434;SDS011;204;48.942;9.256;2022-12-29T09:18:26;2.83;;;1.80;;
434;SDS011;204;48.942;9.256;2022-12-29T09:20:56;2.10;;;1.57;;
434;SDS011;204;48.942;9.256;2022-12-29T09:23:25;1.60;;;1.60;;
434;SDS011;204;48.942;9.256;2022-12-29T09:25:51;3.77;;;1.63;;
434;SDS011;204;48.942;9.256;2022-12-29T09:28:17;1.23;;;1.17;;
434;SDS011;204;48.942;9.256;2022-12-29T09:30:43;2.50;;;1.93;;
434;SDS011;204;48.942;9.256;2022-12-29T09:33:08;2.77;;;2.37;;
434;SDS011;204;48.942;9.256;2022-12-29T09:35:34;5.27;;;2.27;;
434;SDS011;204;48.942;9.256;2022-12-29T09:37:59;4.03;;;2.07;;
434;SDS011;204;48.942;9.256;2022-12-29T09:40:30;1.77;;;1.70;;
434;SDS011;204;48.942;9.256;2022-12-29T09:45:49;1.77;;;1.67;;
434;SDS011;204;48.942;9.256;2022-12-29T09:48:31;2.28;;;2.05;;
434;SDS011;204;48.942;9.256;2022-12-29T09:51:02;5.88;;;2.13;;
434;SDS011;204;48.942;9.256;2022-12-29T09:53:41;2.47;;;1.80;;
434;SDS011;204;48.942;9.256;2022-12-29T09:56:13;2.22;;;1.98;;
434;SDS011;204;48.942;9.256;2022-12-29T09:58:45;3.92;;;1.58;;
434;SDS011;204;48.942;9.256;2022-12-29T10:04:14;3.63;;;1.98;;
434;SDS011;204;48.942;9.256;2022-12-29T10:06:47;3.73;;;2.57;;
434;SDS011;204;48.942;9.256;2022-12-29T10:17:45;3.38;;;2.65;;
434;SDS011;204;48.942;9.256;2022-12-29T10:20:24;3.63;;;2.42;;
434;SDS011;204;48.942;9.256;2022-12-29T10:25:46;2.35;;;1.70;;
434;SDS011;204;48.942;9.256;2022-12-29T10:30:44;2.95;;;1.60;;
434;SDS011;204;48.942;9.256;2022-12-29T10:33:14;1.48;;;1.35;;
434;SDS011;204;48.942;9.256;2022-12-29T10:35:43;1.75;;;1.33;;
434;SDS011;204;48.942;9.256;2022-12-29T10:40:53;5.82;;;4.32;;
434;SDS011;204;48.942;9.256;2022-12-29T10:43:31;12.73;;;12.07;;
434;SDS011;204;48.942;9.256;2022-12-29T10:46:03;7.07;;;5.32;;
434;SDS011;204;48.942;9.256;2022-12-29T10:48:37;10.90;;;5.13;;
434;SDS011;204;48.942;9.256;2022-12-29T10:51:04;1.83;;;1.80;;
434;SDS011;204;48.942;9.256;2022-12-29T10:53:43;1.75;;;1.65;;
434;SDS011;204;48.942;9.256;2022-12-29T10:56:22;2.47;;;1.52;;
434;SDS011;204;48.942;9.256;2022-12-29T10:58:57;6.78;;;3.15;;
434;SDS011;204;48.942;9.256;2022-12-29T11:01:28;5.47;;;4.68;;
434;SDS011;204;48.942;9.256;2022-12-29T11:04:14;2.80;;;2.60;;
434;SDS011;204;48.942;9.256;2022-12-29T11:06:59;1.60;;;1.30;;
434;SDS011;204;48.942;9.256;2022-12-29T11:09:29;2.92;;;1.63;;
434;SDS011;204;48.942;9.256;2022-12-29T11:11:57;1.50;;;1.30;;
434;SDS011;204;48.942;9.256;2022-12-29T11:14:30;8.57;;;2.07;;
434;SDS011;204;48.942;9.256;2022-12-29T11:17:00;2.40;;;1.77;;
434;SDS011;204;48.942;9.256;2022-12-29T11:19:29;3.35;;;2.10;;
434;SDS011;204;48.942;9.256;2022-12-29T11:22:01;2.38;;;1.55;;
434;SDS011;204;48.942;9.256;2022-12-29T11:24:49;1.95;;;1.10;;
434;SDS011;204;48.942;9.256;2022-12-29T11:27:17;1.95;;;1.30;;
434;SDS011;204;48.942;9.256;2022-12-29T11:29:48;1.50;;;1.13;;
434;SDS011;204;48.942;9.256;2022-12-29T11:34:48;1.70;;;1.35;;
434;SDS011;204;48.942;9.256;2022-12-29T11:37:16;2.93;;;2.73;;
434;SDS011;204;48.942;9.256;2022-12-29T11:39:57;3.00;;;2.40;;
434;SDS011;204;48.942;9.256;2022-12-29T11:42:50;1.50;;;1.42;;
434;SDS011;204;48.942;9.256;2022-12-29T11:45:19;1.55;;;1.50;;
434;SDS011;204;48.942;9.256;2022-12-29T11:47:48;1.65;;;1.55;;
434;SDS011;204;48.942;9.256;2022-12-29T11:50:33;1.50;;;1.45;;
434;SDS011;204;48.942;9.256;2022-12-29T11:55:32;1.70;;;1.27;;
434;SDS011;204;48.942;9.256;2022-12-29T11:57:59;2.85;;;1.17;;
434;SDS011;204;48.942;9.256;2022-12-29T12:00:27;1.42;;;1.17;;
434;SDS011;204;48.942;9.256;2022-12-29T12:03:00;1.58;;;0.95;;
434;SDS011;204;48.942;9.256;2022-12-29T12:05:35;1.80;;;1.08;;
434;SDS011;204;48.942;9.256;2022-12-29T12:08:13;2.13;;;1.58;;
434;SDS011;204;48.942;9.256;2022-12-29T12:10:52;1.63;;;1.33;;
434;SDS011;204;48.942;9.256;2022-12-29T12:16:19;3.42;;;1.13;;
434;SDS011;204;48.942;9.256;2022-12-29T12:19:02;1.48;;;1.23;;
434;SDS011;204;48.942;9.256;2022-12-29T12:21:39;4.53;;;1.00;;
434;SDS011;204;48.942;9.256;2022-12-29T12:27:11;1.27;;;0.77;;
434;SDS011;204;48.942;9.256;2022-12-29T12:29:45;11.68;;;10.52;;
434;SDS011;204;48.942;9.256;2022-12-29T12:32:31;3.72;;;3.05;;
434;SDS011;204;48.942;9.256;2022-12-29T12:41:14;1.73;;;0.90;;
434;SDS011;204;48.942;9.256;2022-12-29T12:43:51;4.13;;;1.65;;
434;SDS011;204;48.942;9.256;2022-12-29T12:57:34;2.00;;;1.80;;
434;SDS011;204;48.942;9.256;2022-12-29T13:00:18;1.20;;;1.10;;
434;SDS011;204;48.942;9.256;2022-12-29T13:33:04;4.43;;;1.42;;
434;SDS011;204;48.942;9.256;2022-12-29T13:41:04;4.50;;;1.50;;
434;SDS011;204;48.942;9.256;2022-12-29T13:43:37;2.22;;;2.05;;
434;SDS011;204;48.942;9.256;2022-12-29T13:46:18;2.35;;;1.67;;
434;SDS011;204;48.942;9.256;2022-12-29T13:48:51;7.22;;;1.60;;
434;SDS011;204;48.942;9.256;2022-12-29T13:51:20;2.47;;;1.83;;
434;SDS011;204;48.942;9.256;2022-12-29T14:01:58;1.60;;;1.50;;
434;SDS011;204;48.942;9.256;2022-12-29T14:04:29;1.80;;;1.70;;
434;SDS011;204;48.942;9.256;2022-12-29T14:07:04;2.95;;;2.13;;
434;SDS011;204;48.942;9.256;2022-12-29T14:09:42;1.77;;;1.73;;
434;SDS011;204;48.942;9.256;2022-12-29T14:15:19;2.33;;;2.00;;
434;SDS011;204;48.942;9.256;2022-12-29T14:18:09;2.45;;;1.65;;
434;SDS011;204;48.942;9.256;2022-12-29T14:20:37;2.13;;;1.42;;
434;SDS011;204;48.942;9.256;2022-12-29T14:28:26;2.22;;;2.03;;
434;SDS011;204;48.942;9.256;2022-12-29T14:30:59;1.98;;;1.90;;
434;SDS011;204;48.942;9.256;2022-12-29T14:33:33;1.65;;;1.60;;
434;SDS011;204;48.942;9.256;2022-12-29T14:36:19;2.53;;;2.33;;
434;SDS011;204;48.942;9.256;2022-12-29T14:38:45;2.17;;;1.60;;
434;SDS011;204;48.942;9.256;2022-12-29T14:41:15;2.35;;;1.77;;
434;SDS011;204;48.942;9.256;2022-12-29T14:49:19;3.05;;;2.53;;
434;SDS011;204;48.942;9.256;2022-12-29T14:51:48;2.50;;;2.30;;
434;SDS011;204;48.942;9.256;2022-12-29T14:57:03;3.00;;;2.80;;
434;SDS011;204;48.942;9.256;2022-12-29T14:59:34;2.88;;;2.50;;
434;SDS011;204;48.942;9.256;2022-12-29T15:02:04;6.68;;;2.63;;
434;SDS011;204;48.942;9.256;2022-12-29T15:04:40;2.88;;;2.42;;
434;SDS011;204;48.942;9.256;2022-12-29T15:07:08;4.03;;;2.95;;
434;SDS011;204;48.942;9.256;2022-12-29T15:09:42;3.42;;;2.53;;
434;SDS011;204;48.942;9.256;2022-12-29T15:14:52;5.35;;;2.33;;
434;SDS011;204;48.942;9.256;2022-12-29T15:17:27;3.63;;;2.90;;
434;SDS011;204;48.942;9.256;2022-12-29T15:19:56;5.82;;;3.03;;
434;SDS011;204;48.942;9.256;2022-12-29T15:22:23;5.53;;;3.03;;
434;SDS011;204;48.942;9.256;2022-12-29T15:24:49;2.95;;;2.25;;
434;SDS011;204;48.942;9.256;2022-12-29T15:27:19;3.10;;;2.33;;
434;SDS011;204;48.942;9.256;2022-12-29T15:29:47;3.85;;;2.20;;
434;SDS011;204;48.942;9.256;2022-12-29T15:34:42;5.38;;;2.65;;
434;SDS011;204;48.942;9.256;2022-12-29T15:37:09;3.25;;;2.30;;
434;SDS011;204;48.942;9.256;2022-12-29T15:39:41;4.43;;;2.28;;
434;SDS011;204;48.942;9.256;2022-12-29T15:42:22;7.47;;;3.70;;
434;SDS011;204;48.942;9.256;2022-12-29T15:45:03;5.47;;;2.63;;
434;SDS011;204;48.942;9.256;2022-12-29T15:47:35;6.90;;;4.53;;
434;SDS011;204;48.942;9.256;2022-12-29T15:50:03;9.90;;;8.70;;
434;SDS011;204;48.942;9.256;2022-12-29T15:52:34;2.97;;;2.35;;
434;SDS011;204;48.942;9.256;2022-12-29T15:55:00;2.97;;;2.47;;
434;SDS011;204;48.942;9.256;2022-12-29T15:57:28;2.28;;;2.05;;
434;SDS011;204;48.942;9.256;2022-12-29T15:59:57;4.10;;;2.75;;
434;SDS011;204;48.942;9.256;2022-12-29T16:02:23;4.47;;;2.50;;
434;SDS011;204;48.942;9.256;2022-12-29T16:04:50;3.47;;;2.30;;
434;SDS011;204;48.942;9.256;2022-12-29T16:09:56;3.70;;;2.78;;
434;SDS011;204;48.942;9.256;2022-12-29T16:12:29;4.75;;;2.75;;
434;SDS011;204;48.942;9.256;2022-12-29T16:15:01;5.40;;;3.42;;
434;SDS011;204;48.942;9.256;2022-12-29T16:17:32;4.07;;;3.17;;
434;SDS011;204;48.942;9.256;2022-12-29T16:20:14;5.68;;;3.72;;
434;SDS011;204;48.942;9.256;2022-12-29T16:22:46;4.30;;;3.10;;
434;SDS011;204;48.942;9.256;2022-12-29T16:27:50;3.63;;;3.00;;
434;SDS011;204;48.942;9.256;2022-12-29T16:32:48;2.92;;;1.73;;
434;SDS011;204;48.942;9.256;2022-12-29T16:35:25;3.05;;;2.85;;
434;SDS011;204;48.942;9.256;2022-12-29T16:38:11;2.70;;;2.17;;
434;SDS011;204;48.942;9.256;2022-12-29T16:40:54;3.65;;;2.85;;
434;SDS011;204;48.942;9.256;2022-12-29T16:43:25;4.38;;;3.20;;
434;SDS011;204;48.942;9.256;2022-12-29T16:48:22;3.20;;;3.00;;
434;SDS011;204;48.942;9.256;2022-12-29T16:51:00;5.10;;;4.60;;
434;SDS011;204;48.942;9.256;2022-12-29T16:53:31;4.70;;;3.47;;
434;SDS011;204;48.942;9.256;2022-12-29T16:56:13;5.90;;;4.00;;
434;SDS011;204;48.942;9.256;2022-12-29T16:58:41;7.63;;;5.05;;
434;SDS011;204;48.942;9.256;2022-12-29T17:01:15;5.95;;;5.65;;
434;SDS011;204;48.942;9.256;2022-12-29T17:03:45;6.90;;;6.50;;
434;SDS011;204;48.942;9.256;2022-12-29T17:06:17;5.30;;;5.05;;
434;SDS011;204;48.942;9.256;2022-12-29T17:08:45;6.97;;;5.68;;
434;SDS011;204;48.942;9.256;2022-12-29T17:11:18;5.82;;;5.53;;
434;SDS011;204;48.942;9.256;2022-12-29T17:14:49;5.55;;;5.25;;
434;SDS011;204;48.942;9.256;2022-12-29T17:16:56;3.88;;;3.67;;
434;SDS011;204;48.942;9.256;2022-12-29T17:19:32;4.93;;;3.20;;
434;SDS011;204;48.942;9.256;2022-12-29T17:22:00;4.63;;;3.17;;
434;SDS011;204;48.942;9.256;2022-12-29T17:24:26;3.42;;;2.55;;
434;SDS011;204;48.942;9.256;2022-12-29T17:26:53;6.35;;;3.28;;
434;SDS011;204;48.942;9.256;2022-12-29T17:29:24;4.95;;;4.43;;
434;SDS011;204;48.942;9.256;2022-12-29T17:31:53;9.02;;;5.70;;
434;SDS011;204;48.942;9.256;2022-12-29T17:34:19;7.30;;;6.87;;
434;SDS011;204;48.942;9.256;2022-12-29T17:36:45;8.00;;;7.60;;
434;SDS011;204;48.942;9.256;2022-12-29T17:39:11;6.67;;;6.30;;
434;SDS011;204;48.942;9.256;2022-12-29T17:41:36;5.70;;;5.40;;
434;SDS011;204;48.942;9.256;2022-12-29T17:44:03;4.07;;;3.87;;
434;SDS011;204;48.942;9.256;2022-12-29T17:46:30;3.80;;;3.10;;
434;SDS011;204;48.942;9.256;2022-12-29T17:48:57;2.95;;;2.75;;
434;SDS011;204;48.942;9.256;2022-12-29T17:51:22;5.10;;;2.77;;
434;SDS011;204;48.942;9.256;2022-12-29T17:53:48;4.37;;;2.70;;
434;SDS011;204;48.942;9.256;2022-12-29T17:56:15;3.78;;;2.50;;
434;SDS011;204;48.942;9.256;2022-12-29T17:58:41;4.90;;;3.50;;
434;SDS011;204;48.942;9.256;2022-12-29T18:01:08;3.90;;;2.57;;
434;SDS011;204;48.942;9.256;2022-12-29T18:03:36;4.13;;;2.90;;
434;SDS011;204;48.942;9.256;2022-12-29T18:06:03;3.20;;;3.05;;
434;SDS011;204;48.942;9.256;2022-12-29T18:08:32;3.63;;;3.35;;
434;SDS011;204;48.942;9.256;2022-12-29T18:10:59;6.00;;;3.13;;
434;SDS011;204;48.942;9.256;2022-12-29T18:13:27;4.60;;;4.18;;
434;SDS011;204;48.942;9.256;2022-12-29T18:15:54;5.70;;;3.13;;
434;SDS011;204;48.942;9.256;2022-12-29T18:18:25;7.10;;;2.40;;
434;SDS011;204;48.942;9.256;2022-12-29T18:20:52;7.65;;;3.60;;
434;SDS011;204;48.942;9.256;2022-12-29T18:23:26;6.15;;;2.45;;
434;SDS011;204;48.942;9.256;2022-12-29T18:28:24;10.02;;;3.40;;
434;SDS011;204;48.942;9.256;2022-12-29T18:30:50;7.53;;;3.28;;
434;SDS011;204;48.942;9.256;2022-12-29T18:33:17;10.48;;;4.03;;
434;SDS011;204;48.942;9.256;2022-12-29T18:35:49;4.68;;;2.63;;
434;SDS011;204;48.942;9.256;2022-12-29T18:38:21;4.65;;;2.53;;
434;SDS011;204;48.942;9.256;2022-12-29T18:40:47;6.33;;;2.37;;
434;SDS011;204;48.942;9.256;2022-12-29T18:43:13;6.50;;;1.80;;
434;SDS011;204;48.942;9.256;2022-12-29T18:45:39;7.90;;;3.38;;
434;SDS011;204;48.942;9.256;2022-12-29T18:48:05;12.60;;;5.72;;
434;SDS011;204;48.942;9.256;2022-12-29T18:50:31;10.40;;;6.47;;